sensor_id;sensor_type;location;lat;lon;timestamp;temperature;humidity
5980;DHT22;3016;50.308;8.258;2023-04-15T00:02:18;1.90;1.00
5980;DHT22;3016;50.308;8.258;2023-04-15T00:05:19;1.90;1.00
5980;DHT22;3016;50.308;8.258;2023-04-15T00:08:20;1.80;1.00
5980;DHT22;3016;50.308;8.258;2023-04-15T00:11:21;1.80;1.00
5980;DHT22;3016;50.308;8.258;2023-04-15T00:14:21;1.70;1.00
5980;DHT22;3016;50.308;8.258;2023-04-15T00:17:22;1.60;1.00
5980;DHT22;3016;50.308;8.258;2023-04-15T00:20:23;1.70;1.00
5980;DHT22;3016;50.308;8.258;2023-04-15T00:23:24;1.60;1.00
5980;DHT22;3016;50.308;8.258;2023-04-15T00:26:25;1.60;1.00
5980;DHT22;3016;50.308;8.258;2023-04-15T00:29:26;1.50;1.00
5980;DHT22;3016;50.308;8.258;2023-04-15T00:32:27;1.50;1.00
5980;DHT22;3016;50.308;8.258;2023-04-15T00:35:28;1.40;1.00
5980;DHT22;3016;50.308;8.258;2023-04-15T00:38:31;1.40;1.00
5980;DHT22;3016;50.308;8.258;2023-04-15T00:41:32;1.50;1.00
5980;DHT22;3016;50.308;8.258;2023-04-15T00:44:33;1.30;1.00
5980;DHT22;3016;50.308;8.258;2023-04-15T00:47:35;1.30;1.00
5980;DHT22;3016;50.308;8.258;2023-04-15T00:50:36;1.30;1.00
5980;DHT22;3016;50.308;8.258;2023-04-15T00:53:37;1.30;1.80
5980;DHT22;3016;50.308;8.258;2023-04-15T00:56:38;1.20;2.60
5980;DHT22;3016;50.308;8.258;2023-04-15T00:59:39;1.20;1.70
5980;DHT22;3016;50.308;8.258;2023-04-15T01:02:39;1.20;4.20
5980;DHT22;3016;50.308;8.258;2023-04-15T01:05:40;1.20;4.20
5980;DHT22;3016;50.308;8.258;2023-04-15T01:08:42;1.20;5.50
5980;DHT22;3016;50.308;8.258;2023-04-15T01:11:43;1.20;5.90
5980;DHT22;3016;50.308;8.258;2023-04-15T01:14:44;1.20;2.90
5980;DHT22;3016;50.308;8.258;2023-04-15T01:17:45;1.10;2.40
5980;DHT22;3016;50.308;8.258;2023-04-15T01:20:46;1.10;2.00
5980;DHT22;3016;50.308;8.258;2023-04-15T01:23:47;1.00;1.60
5980;DHT22;3016;50.308;8.258;2023-04-15T01:26:49;0.90;1.50
5980;DHT22;3016;50.308;8.258;2023-04-15T01:29:49;0.90;2.60
5980;DHT22;3016;50.308;8.258;2023-04-15T01:32:50;0.90;4.10
5980;DHT22;3016;50.308;8.258;2023-04-15T01:35:51;0.80;4.20
5980;DHT22;3016;50.308;8.258;2023-04-15T01:38:53;0.80;3.10
5980;DHT22;3016;50.308;8.258;2023-04-15T01:41:54;0.80;3.30
5980;DHT22;3016;50.308;8.258;2023-04-15T01:44:56;0.70;5.20
5980;DHT22;3016;50.308;8.258;2023-04-15T01:47:57;0.70;7.60
5980;DHT22;3016;50.308;8.258;2023-04-15T01:50:58;0.70;8.70
5980;DHT22;3016;50.308;8.258;2023-04-15T01:53:58;0.70;8.90
5980;DHT22;3016;50.308;8.258;2023-04-15T01:56:59;0.70;8.20
5980;DHT22;3016;50.308;8.258;2023-04-15T02:00:00;0.60;8.50
5980;DHT22;3016;50.308;8.258;2023-04-15T02:03:00;0.60;8.60
5980;DHT22;3016;50.308;8.258;2023-04-15T02:06:01;0.50;8.80
5980;DHT22;3016;50.308;8.258;2023-04-15T02:09:02;0.50;9.50
5980;DHT22;3016;50.308;8.258;2023-04-15T02:12:03;0.40;10.30
5980;DHT22;3016;50.308;8.258;2023-04-15T02:15:05;0.50;11.70
5980;DHT22;3016;50.308;8.258;2023-04-15T02:18:06;0.50;12.50
5980;DHT22;3016;50.308;8.258;2023-04-15T02:21:07;0.40;12.50
5980;DHT22;3016;50.308;8.258;2023-04-15T02:24:08;0.40;11.40
5980;DHT22;3016;50.308;8.258;2023-04-15T02:27:08;0.40;12.50
5980;DHT22;3016;50.308;8.258;2023-04-15T02:30:09;0.40;13.00
5980;DHT22;3016;50.308;8.258;2023-04-15T02:33:10;0.50;12.50
5980;DHT22;3016;50.308;8.258;2023-04-15T02:36:11;0.40;11.20
5980;DHT22;3016;50.308;8.258;2023-04-15T02:39:11;0.30;11.80
5980;DHT22;3016;50.308;8.258;2023-04-15T02:42:16;0.40;13.50
5980;DHT22;3016;50.308;8.258;2023-04-15T02:45:16;0.30;12.40
5980;DHT22;3016;50.308;8.258;2023-04-15T02:48:19;0.20;12.00
5980;DHT22;3016;50.308;8.258;2023-04-15T02:51:21;0.30;13.50
5980;DHT22;3016;50.308;8.258;2023-04-15T02:54:22;0.20;13.90
5980;DHT22;3016;50.308;8.258;2023-04-15T02:57:23;0.20;14.10
5980;DHT22;3016;50.308;8.258;2023-04-15T03:00:24;0.20;12.90
5980;DHT22;3016;50.308;8.258;2023-04-15T03:03:25;0.20;13.10
5980;DHT22;3016;50.308;8.258;2023-04-15T03:06:28;0.20;14.30
5980;DHT22;3016;50.308;8.258;2023-04-15T03:09:28;0.10;14.60
5980;DHT22;3016;50.308;8.258;2023-04-15T03:12:29;0.10;15.20
5980;DHT22;3016;50.308;8.258;2023-04-15T03:15:31;0.10;15.90
5980;DHT22;3016;50.308;8.258;2023-04-15T03:18:32;0.10;15.60
5980;DHT22;3016;50.308;8.258;2023-04-15T03:21:33;0.00;13.20
5980;DHT22;3016;50.308;8.258;2023-04-15T03:24:34;0.00;12.90
5980;DHT22;3016;50.308;8.258;2023-04-15T03:27:34;-0.10;13.30
5980;DHT22;3016;50.308;8.258;2023-04-15T03:30:35;0.00;15.00
5980;DHT22;3016;50.308;8.258;2023-04-15T03:33:36;-0.10;15.70
5980;DHT22;3016;50.308;8.258;2023-04-15T03:36:36;0.00;17.20
5980;DHT22;3016;50.308;8.258;2023-04-15T03:39:37;0.00;18.00
5980;DHT22;3016;50.308;8.258;2023-04-15T03:42:38;-0.10;17.10
5980;DHT22;3016;50.308;8.258;2023-04-15T03:45:39;-0.10;17.90
5980;DHT22;3016;50.308;8.258;2023-04-15T03:48:39;0.00;18.50
5980;DHT22;3016;50.308;8.258;2023-04-15T03:51:40;-0.10;17.70
5980;DHT22;3016;50.308;8.258;2023-04-15T03:54:41;-0.10;17.70
5980;DHT22;3016;50.308;8.258;2023-04-15T03:57:42;-0.10;19.00
5980;DHT22;3016;50.308;8.258;2023-04-15T04:00:42;-0.10;19.30
5980;DHT22;3016;50.308;8.258;2023-04-15T04:03:43;-0.20;19.20
5980;DHT22;3016;50.308;8.258;2023-04-15T04:06:44;-0.10;21.30
5980;DHT22;3016;50.308;8.258;2023-04-15T04:09:44;0.00;21.80
5980;DHT22;3016;50.308;8.258;2023-04-15T04:12:45;0.00;21.70
5980;DHT22;3016;50.308;8.258;2023-04-15T04:15:46;0.00;20.80
5980;DHT22;3016;50.308;8.258;2023-04-15T04:18:47;0.00;20.90
5980;DHT22;3016;50.308;8.258;2023-04-15T04:21:47;0.00;20.30
5980;DHT22;3016;50.308;8.258;2023-04-15T04:24:48;-0.10;20.30
5980;DHT22;3016;50.308;8.258;2023-04-15T04:27:49;0.00;21.00
5980;DHT22;3016;50.308;8.258;2023-04-15T04:30:50;0.00;20.50
5980;DHT22;3016;50.308;8.258;2023-04-15T04:33:51;0.00;21.30
5980;DHT22;3016;50.308;8.258;2023-04-15T04:36:51;0.00;21.80
5980;DHT22;3016;50.308;8.258;2023-04-15T04:39:52;0.00;21.60
5980;DHT22;3016;50.308;8.258;2023-04-15T04:42:53;0.00;22.30
5980;DHT22;3016;50.308;8.258;2023-04-15T04:45:53;0.00;23.00
5980;DHT22;3016;50.308;8.258;2023-04-15T04:48:54;0.10;23.80
5980;DHT22;3016;50.308;8.258;2023-04-15T04:51:55;0.10;24.40
5980;DHT22;3016;50.308;8.258;2023-04-15T04:54:56;0.10;23.90
5980;DHT22;3016;50.308;8.258;2023-04-15T04:57:56;0.10;23.90
5980;DHT22;3016;50.308;8.258;2023-04-15T05:00:57;0.10;23.10
5980;DHT22;3016;50.308;8.258;2023-04-15T05:03:58;0.10;23.80
5980;DHT22;3016;50.308;8.258;2023-04-15T05:06:59;0.20;25.60
5980;DHT22;3016;50.308;8.258;2023-04-15T05:10:00;0.30;26.50
5980;DHT22;3016;50.308;8.258;2023-04-15T05:13:00;0.40;26.60
5980;DHT22;3016;50.308;8.258;2023-04-15T05:16:01;0.40;26.60
5980;DHT22;3016;50.308;8.258;2023-04-15T05:19:02;0.40;26.60
5980;DHT22;3016;50.308;8.258;2023-04-15T05:22:03;0.40;25.90
5980;DHT22;3016;50.308;8.258;2023-04-15T05:25:04;0.50;24.80
5980;DHT22;3016;50.308;8.258;2023-04-15T05:28:05;0.50;23.90
5980;DHT22;3016;50.308;8.258;2023-04-15T05:31:05;0.50;24.30
5980;DHT22;3016;50.308;8.258;2023-04-15T05:34:06;0.50;25.60
5980;DHT22;3016;50.308;8.258;2023-04-15T05:37:07;0.70;28.10
5980;DHT22;3016;50.308;8.258;2023-04-15T05:40:08;0.70;28.30
5980;DHT22;3016;50.308;8.258;2023-04-15T05:43:09;0.80;28.40
5980;DHT22;3016;50.308;8.258;2023-04-15T05:46:10;0.90;28.00
5980;DHT22;3016;50.308;8.258;2023-04-15T05:49:11;0.90;28.20
5980;DHT22;3016;50.308;8.258;2023-04-15T05:52:12;0.90;27.30
5980;DHT22;3016;50.308;8.258;2023-04-15T05:55:12;1.00;26.90
5980;DHT22;3016;50.308;8.258;2023-04-15T05:58:13;1.10;28.60
5980;DHT22;3016;50.308;8.258;2023-04-15T06:01:14;1.20;29.60
5980;DHT22;3016;50.308;8.258;2023-04-15T06:04:15;1.30;30.60
5980;DHT22;3016;50.308;8.258;2023-04-15T06:07:16;1.40;30.60
5980;DHT22;3016;50.308;8.258;2023-04-15T06:10:17;1.60;30.00
5980;DHT22;3016;50.308;8.258;2023-04-15T06:13:17;1.70;28.20
5980;DHT22;3016;50.308;8.258;2023-04-15T06:16:18;1.80;26.50
5980;DHT22;3016;50.308;8.258;2023-04-15T06:19:19;1.90;24.40
5980;DHT22;3016;50.308;8.258;2023-04-15T06:22:20;1.90;21.40
5980;DHT22;3016;50.308;8.258;2023-04-15T06:25:22;1.90;17.60
5980;DHT22;3016;50.308;8.258;2023-04-15T06:28:23;2.00;17.10
5980;DHT22;3016;50.308;8.258;2023-04-15T06:31:24;2.10;15.80
5980;DHT22;3016;50.308;8.258;2023-04-15T06:34:24;2.20;13.50
5980;DHT22;3016;50.308;8.258;2023-04-15T06:37:25;2.40;13.00
5980;DHT22;3016;50.308;8.258;2023-04-15T06:40:26;2.60;12.90
5980;DHT22;3016;50.308;8.258;2023-04-15T06:43:27;2.80;9.40
5980;DHT22;3016;50.308;8.258;2023-04-15T06:46:28;3.00;2.80
5980;DHT22;3016;50.308;8.258;2023-04-15T06:49:28;3.10;1.00
5980;DHT22;3016;50.308;8.258;2023-04-15T06:52:30;3.20;1.00
5980;DHT22;3016;50.308;8.258;2023-04-15T06:55:31;3.40;1.00
5980;DHT22;3016;50.308;8.258;2023-04-15T06:58:33;3.40;1.00
5980;DHT22;3016;50.308;8.258;2023-04-15T07:01:34;3.50;1.00
5980;DHT22;3016;50.308;8.258;2023-04-15T07:04:35;3.70;1.00
5980;DHT22;3016;50.308;8.258;2023-04-15T07:07:35;3.90;1.00
5980;DHT22;3016;50.308;8.258;2023-04-15T07:10:36;4.20;1.00
5980;DHT22;3016;50.308;8.258;2023-04-15T07:13:37;4.50;1.00
5980;DHT22;3016;50.308;8.258;2023-04-15T07:16:38;4.80;1.00
5980;DHT22;3016;50.308;8.258;2023-04-15T07:19:38;4.90;1.00
5980;DHT22;3016;50.308;8.258;2023-04-15T07:22:39;5.10;1.00
5980;DHT22;3016;50.308;8.258;2023-04-15T07:25:40;5.20;1.00
5980;DHT22;3016;50.308;8.258;2023-04-15T07:28:41;5.30;1.00
5980;DHT22;3016;50.308;8.258;2023-04-15T07:31:42;5.50;1.00
5980;DHT22;3016;50.308;8.258;2023-04-15T07:34:43;5.60;1.00
5980;DHT22;3016;50.308;8.258;2023-04-15T07:37:44;5.90;1.00
5980;DHT22;3016;50.308;8.258;2023-04-15T07:40:45;6.30;1.00
5980;DHT22;3016;50.308;8.258;2023-04-15T07:43:46;6.50;1.00
5980;DHT22;3016;50.308;8.258;2023-04-15T07:46:48;6.80;1.00
5980;DHT22;3016;50.308;8.258;2023-04-15T07:49:48;7.00;1.00
5980;DHT22;3016;50.308;8.258;2023-04-15T07:52:50;7.20;1.00
5980;DHT22;3016;50.308;8.258;2023-04-15T07:55:51;7.30;1.00
5980;DHT22;3016;50.308;8.258;2023-04-15T07:58:52;7.60;1.00
5980;DHT22;3016;50.308;8.258;2023-04-15T08:01:53;7.90;1.00
5980;DHT22;3016;50.308;8.258;2023-04-15T08:04:54;8.10;1.00
5980;DHT22;3016;50.308;8.258;2023-04-15T08:07:55;8.10;1.00
5980;DHT22;3016;50.308;8.258;2023-04-15T08:10:57;8.10;1.00
5980;DHT22;3016;50.308;8.258;2023-04-15T08:14:06;8.20;1.00
5980;DHT22;3016;50.308;8.258;2023-04-15T08:17:07;8.50;1.00
5980;DHT22;3016;50.308;8.258;2023-04-15T08:20:09;8.70;1.00
5980;DHT22;3016;50.308;8.258;2023-04-15T08:23:10;8.80;1.00
5980;DHT22;3016;50.308;8.258;2023-04-15T08:26:11;8.90;1.00
5980;DHT22;3016;50.308;8.258;2023-04-15T08:29:12;8.90;1.00
5980;DHT22;3016;50.308;8.258;2023-04-15T08:32:13;9.00;1.00
5980;DHT22;3016;50.308;8.258;2023-04-15T08:35:14;9.20;1.00
5980;DHT22;3016;50.308;8.258;2023-04-15T08:38:15;9.40;1.00
5980;DHT22;3016;50.308;8.258;2023-04-15T08:41:24;9.50;1.00
5980;DHT22;3016;50.308;8.258;2023-04-15T08:44:25;9.50;1.00
5980;DHT22;3016;50.308;8.258;2023-04-15T08:47:29;9.60;1.00
5980;DHT22;3016;50.308;8.258;2023-04-15T08:50:34;9.90;1.00
5980;DHT22;3016;50.308;8.258;2023-04-15T08:53:35;10.10;1.00
5980;DHT22;3016;50.308;8.258;2023-04-15T08:56:38;10.30;1.00
5980;DHT22;3016;50.308;8.258;2023-04-15T08:59:40;10.40;1.00
5980;DHT22;3016;50.308;8.258;2023-04-15T09:02:42;10.60;1.00
5980;DHT22;3016;50.308;8.258;2023-04-15T09:05:43;10.60;1.00
5980;DHT22;3016;50.308;8.258;2023-04-15T09:08:44;10.90;1.00
5980;DHT22;3016;50.308;8.258;2023-04-15T09:11:45;11.10;1.00
5980;DHT22;3016;50.308;8.258;2023-04-15T09:14:46;11.20;1.00
5980;DHT22;3016;50.308;8.258;2023-04-15T09:17:47;11.30;1.00
5980;DHT22;3016;50.308;8.258;2023-04-15T09:20:48;11.30;1.00
5980;DHT22;3016;50.308;8.258;2023-04-15T09:24:00;11.30;1.00
5980;DHT22;3016;50.308;8.258;2023-04-15T09:27:01;11.50;1.00
5980;DHT22;3016;50.308;8.258;2023-04-15T09:30:07;11.50;1.00
5980;DHT22;3016;50.308;8.258;2023-04-15T09:33:08;11.60;1.00
5980;DHT22;3016;50.308;8.258;2023-04-15T09:36:10;11.70;1.00
5980;DHT22;3016;50.308;8.258;2023-04-15T09:39:11;11.90;1.00
5980;DHT22;3016;50.308;8.258;2023-04-15T09:42:11;11.90;1.00
5980;DHT22;3016;50.308;8.258;2023-04-15T09:45:12;11.90;1.00
5980;DHT22;3016;50.308;8.258;2023-04-15T09:51:33;11.90;1.00
5980;DHT22;3016;50.308;8.258;2023-04-15T09:54:36;12.00;1.00
5980;DHT22;3016;50.308;8.258;2023-04-15T09:57:38;12.00;1.00
5980;DHT22;3016;50.308;8.258;2023-04-15T10:00:40;12.00;1.00
5980;DHT22;3016;50.308;8.258;2023-04-15T10:03:41;11.90;1.00
5980;DHT22;3016;50.308;8.258;2023-04-15T10:06:42;11.90;1.00
5980;DHT22;3016;50.308;8.258;2023-04-15T10:09:44;11.80;1.00
5980;DHT22;3016;50.308;8.258;2023-04-15T10:12:46;11.50;1.00
5980;DHT22;3016;50.308;8.258;2023-04-15T10:16:06;11.40;1.00
5980;DHT22;3016;50.308;8.258;2023-04-15T10:19:11;11.40;1.00
5980;DHT22;3016;50.308;8.258;2023-04-15T10:22:13;11.30;1.00
5980;DHT22;3016;50.308;8.258;2023-04-15T10:25:14;11.30;1.00
5980;DHT22;3016;50.308;8.258;2023-04-15T10:28:15;11.40;1.00
5980;DHT22;3016;50.308;8.258;2023-04-15T10:31:17;11.40;1.00
5980;DHT22;3016;50.308;8.258;2023-04-15T10:34:19;11.40;1.00
5980;DHT22;3016;50.308;8.258;2023-04-15T10:37:24;11.30;1.00
5980;DHT22;3016;50.308;8.258;2023-04-15T10:40:38;11.30;1.00
5980;DHT22;3016;50.308;8.258;2023-04-15T10:43:39;11.40;1.00
5980;DHT22;3016;50.308;8.258;2023-04-15T10:46:47;11.60;1.00
5980;DHT22;3016;50.308;8.258;2023-04-15T10:49:58;11.70;1.00
5980;DHT22;3016;50.308;8.258;2023-04-15T10:53:02;11.80;1.00
5980;DHT22;3016;50.308;8.258;2023-04-15T10:56:04;12.10;1.00
5980;DHT22;3016;50.308;8.258;2023-04-15T10:59:05;12.40;1.00
5980;DHT22;3016;50.308;8.258;2023-04-15T11:02:07;12.80;1.00
5980;DHT22;3016;50.308;8.258;2023-04-15T11:05:08;13.10;1.00
5980;DHT22;3016;50.308;8.258;2023-04-15T11:08:13;13.50;1.00
5980;DHT22;3016;50.308;8.258;2023-04-15T11:11:14;13.30;1.00
5980;DHT22;3016;50.308;8.258;2023-04-15T11:14:15;13.10;1.00
5980;DHT22;3016;50.308;8.258;2023-04-15T11:17:26;12.80;1.00
5980;DHT22;3016;50.308;8.258;2023-04-15T11:20:31;12.80;1.00
5980;DHT22;3016;50.308;8.258;2023-04-15T11:23:34;12.70;1.00
5980;DHT22;3016;50.308;8.258;2023-04-15T11:26:39;12.70;1.00
5980;DHT22;3016;50.308;8.258;2023-04-15T11:29:39;12.50;1.00
5980;DHT22;3016;50.308;8.258;2023-04-15T11:32:43;12.60;1.00
5980;DHT22;3016;50.308;8.258;2023-04-15T11:35:44;12.60;1.00
5980;DHT22;3016;50.308;8.258;2023-04-15T11:38:48;12.70;1.00
5980;DHT22;3016;50.308;8.258;2023-04-15T11:41:48;12.70;1.00
5980;DHT22;3016;50.308;8.258;2023-04-15T11:44:49;12.40;1.00
5980;DHT22;3016;50.308;8.258;2023-04-15T11:47:50;12.20;1.00
5980;DHT22;3016;50.308;8.258;2023-04-15T11:50:56;12.00;1.00
5980;DHT22;3016;50.308;8.258;2023-04-15T11:53:58;11.70;1.00
5980;DHT22;3016;50.308;8.258;2023-04-15T11:56:59;11.40;1.00
5980;DHT22;3016;50.308;8.258;2023-04-15T12:00:01;11.30;1.00
5980;DHT22;3016;50.308;8.258;2023-04-15T12:03:29;11.20;1.00
5980;DHT22;3016;50.308;8.258;2023-04-15T12:06:33;11.20;1.00
5980;DHT22;3016;50.308;8.258;2023-04-15T12:09:38;11.20;1.00
5980;DHT22;3016;50.308;8.258;2023-04-15T12:12:40;11.30;1.00
5980;DHT22;3016;50.308;8.258;2023-04-15T12:15:40;11.10;1.00
5980;DHT22;3016;50.308;8.258;2023-04-15T12:18:47;11.20;1.00
5980;DHT22;3016;50.308;8.258;2023-04-15T12:21:56;11.10;1.00
5980;DHT22;3016;50.308;8.258;2023-04-15T12:25:08;11.00;1.00
5980;DHT22;3016;50.308;8.258;2023-04-15T12:28:11;10.80;1.00
5980;DHT22;3016;50.308;8.258;2023-04-15T12:31:13;10.60;1.00
5980;DHT22;3016;50.308;8.258;2023-04-15T12:34:14;10.50;1.00
5980;DHT22;3016;50.308;8.258;2023-04-15T12:37:15;10.40;1.00
5980;DHT22;3016;50.308;8.258;2023-04-15T12:40:17;10.30;1.00
5980;DHT22;3016;50.308;8.258;2023-04-15T12:43:18;10.20;1.00
5980;DHT22;3016;50.308;8.258;2023-04-15T12:46:20;10.20;1.00
5980;DHT22;3016;50.308;8.258;2023-04-15T12:49:21;10.00;1.00
5980;DHT22;3016;50.308;8.258;2023-04-15T12:52:22;10.00;1.00
5980;DHT22;3016;50.308;8.258;2023-04-15T12:55:24;9.90;1.00
5980;DHT22;3016;50.308;8.258;2023-04-15T12:58:25;9.90;1.00
5980;DHT22;3016;50.308;8.258;2023-04-15T13:01:25;9.80;1.00
5980;DHT22;3016;50.308;8.258;2023-04-15T13:04:26;9.60;1.00
5980;DHT22;3016;50.308;8.258;2023-04-15T13:07:29;9.70;1.00
5980;DHT22;3016;50.308;8.258;2023-04-15T13:10:31;9.60;1.00
5980;DHT22;3016;50.308;8.258;2023-04-15T13:13:32;9.60;1.00
5980;DHT22;3016;50.308;8.258;2023-04-15T13:16:33;9.70;1.00
5980;DHT22;3016;50.308;8.258;2023-04-15T13:19:34;9.80;1.00
5980;DHT22;3016;50.308;8.258;2023-04-15T13:22:36;9.80;1.00
5980;DHT22;3016;50.308;8.258;2023-04-15T13:25:37;9.80;1.00
5980;DHT22;3016;50.308;8.258;2023-04-15T13:28:38;9.90;1.00
5980;DHT22;3016;50.308;8.258;2023-04-15T13:31:39;9.70;1.00
5980;DHT22;3016;50.308;8.258;2023-04-15T13:34:40;9.60;1.00
5980;DHT22;3016;50.308;8.258;2023-04-15T13:37:41;9.50;1.00
5980;DHT22;3016;50.308;8.258;2023-04-15T13:40:41;9.40;1.00
5980;DHT22;3016;50.308;8.258;2023-04-15T13:43:42;9.30;1.00
5980;DHT22;3016;50.308;8.258;2023-04-15T13:46:43;9.40;1.00
5980;DHT22;3016;50.308;8.258;2023-04-15T13:49:43;9.50;1.00
5980;DHT22;3016;50.308;8.258;2023-04-15T13:52:44;9.50;1.00
5980;DHT22;3016;50.308;8.258;2023-04-15T13:55:45;9.50;1.00
5980;DHT22;3016;50.308;8.258;2023-04-15T13:58:45;9.60;1.00
5980;DHT22;3016;50.308;8.258;2023-04-15T14:01:46;9.60;1.00
5980;DHT22;3016;50.308;8.258;2023-04-15T14:04:47;9.60;1.00
5980;DHT22;3016;50.308;8.258;2023-04-15T14:07:48;9.50;1.00
5980;DHT22;3016;50.308;8.258;2023-04-15T14:10:49;9.50;1.00
5980;DHT22;3016;50.308;8.258;2023-04-15T14:13:50;9.30;1.00
5980;DHT22;3016;50.308;8.258;2023-04-15T14:16:50;9.20;1.00
5980;DHT22;3016;50.308;8.258;2023-04-15T14:19:51;9.20;1.00
5980;DHT22;3016;50.308;8.258;2023-04-15T14:22:52;9.10;1.00
5980;DHT22;3016;50.308;8.258;2023-04-15T14:25:52;9.20;1.00
5980;DHT22;3016;50.308;8.258;2023-04-15T14:28:53;9.20;1.00
5980;DHT22;3016;50.308;8.258;2023-04-15T14:31:54;9.20;1.00
5980;DHT22;3016;50.308;8.258;2023-04-15T14:34:56;9.20;1.00
5980;DHT22;3016;50.308;8.258;2023-04-15T14:37:57;9.20;1.00
5980;DHT22;3016;50.308;8.258;2023-04-15T14:40:57;9.30;1.00
5980;DHT22;3016;50.308;8.258;2023-04-15T14:43:58;9.20;1.00
5980;DHT22;3016;50.308;8.258;2023-04-15T14:46:59;9.20;1.00
5980;DHT22;3016;50.308;8.258;2023-04-15T14:50:00;9.30;1.00
5980;DHT22;3016;50.308;8.258;2023-04-15T14:53:00;9.30;2.00
5980;DHT22;3016;50.308;8.258;2023-04-15T14:56:01;9.30;2.00
5980;DHT22;3016;50.308;8.258;2023-04-15T14:59:02;9.20;1.00
5980;DHT22;3016;50.308;8.258;2023-04-15T15:02:02;9.10;1.00
5980;DHT22;3016;50.308;8.258;2023-04-15T15:05:03;9.10;3.30
5980;DHT22;3016;50.308;8.258;2023-04-15T15:08:06;9.00;1.00
5980;DHT22;3016;50.308;8.258;2023-04-15T15:11:10;8.90;4.50
5980;DHT22;3016;50.308;8.258;2023-04-15T15:14:10;8.90;4.30
5980;DHT22;3016;50.308;8.258;2023-04-15T15:17:11;8.80;3.20
5980;DHT22;3016;50.308;8.258;2023-04-15T15:20:12;8.70;2.50
5980;DHT22;3016;50.308;8.258;2023-04-15T15:23:12;8.70;5.70
5980;DHT22;3016;50.308;8.258;2023-04-15T15:26:13;8.60;7.50
5980;DHT22;3016;50.308;8.258;2023-04-15T15:29:14;8.60;5.20
5980;DHT22;3016;50.308;8.258;2023-04-15T15:32:15;8.60;10.10
5980;DHT22;3016;50.308;8.258;2023-04-15T15:35:16;8.50;9.70
5980;DHT22;3016;50.308;8.258;2023-04-15T15:38:16;8.50;10.00
5980;DHT22;3016;50.308;8.258;2023-04-15T15:41:17;8.60;12.30
5980;DHT22;3016;50.308;8.258;2023-04-15T15:44:18;8.50;9.40
5980;DHT22;3016;50.308;8.258;2023-04-15T15:47:20;8.40;10.90
5980;DHT22;3016;50.308;8.258;2023-04-15T15:50:21;8.40;15.80
5980;DHT22;3016;50.308;8.258;2023-04-15T15:53:22;8.30;17.30
5980;DHT22;3016;50.308;8.258;2023-04-15T15:56:25;8.20;16.40
5980;DHT22;3016;50.308;8.258;2023-04-15T15:59:26;8.30;17.50
5980;DHT22;3016;50.308;8.258;2023-04-15T16:02:26;8.30;19.30
5980;DHT22;3016;50.308;8.258;2023-04-15T16:05:27;8.30;20.30
5980;DHT22;3016;50.308;8.258;2023-04-15T16:08:28;8.30;19.60
5980;DHT22;3016;50.308;8.258;2023-04-15T16:11:29;8.20;21.10
5980;DHT22;3016;50.308;8.258;2023-04-15T16:14:29;8.20;24.40
5980;DHT22;3016;50.308;8.258;2023-04-15T16:17:31;8.30;26.10
5980;DHT22;3016;50.308;8.258;2023-04-15T16:20:31;8.20;26.10
5980;DHT22;3016;50.308;8.258;2023-04-15T16:23:32;8.20;25.50
5980;DHT22;3016;50.308;8.258;2023-04-15T16:26:33;8.20;29.00
5980;DHT22;3016;50.308;8.258;2023-04-15T16:29:33;8.20;29.70
5980;DHT22;3016;50.308;8.258;2023-04-15T16:32:34;8.10;28.60
5980;DHT22;3016;50.308;8.258;2023-04-15T16:35:36;8.10;29.60
5980;DHT22;3016;50.308;8.258;2023-04-15T16:38:36;8.20;31.70
5980;DHT22;3016;50.308;8.258;2023-04-15T16:41:37;8.20;33.50
5980;DHT22;3016;50.308;8.258;2023-04-15T16:44:38;8.10;34.10
5980;DHT22;3016;50.308;8.258;2023-04-15T16:47:38;8.10;35.40
5980;DHT22;3016;50.308;8.258;2023-04-15T16:50:39;8.10;37.60
5980;DHT22;3016;50.308;8.258;2023-04-15T16:53:40;8.10;36.00
5980;DHT22;3016;50.308;8.258;2023-04-15T16:56:40;8.10;37.00
5980;DHT22;3016;50.308;8.258;2023-04-15T16:59:41;8.00;36.60
5980;DHT22;3016;50.308;8.258;2023-04-15T17:02:42;8.00;37.00
5980;DHT22;3016;50.308;8.258;2023-04-15T17:05:42;8.00;37.60
5980;DHT22;3016;50.308;8.258;2023-04-15T17:08:43;8.00;36.40
5980;DHT22;3016;50.308;8.258;2023-04-15T17:11:44;8.00;38.00
5980;DHT22;3016;50.308;8.258;2023-04-15T17:14:45;7.90;37.30
5980;DHT22;3016;50.308;8.258;2023-04-15T17:17:45;8.00;37.70
5980;DHT22;3016;50.308;8.258;2023-04-15T17:20:46;8.00;36.40
5980;DHT22;3016;50.308;8.258;2023-04-15T17:23:47;7.90;36.20
5980;DHT22;3016;50.308;8.258;2023-04-15T17:26:47;7.90;35.40
5980;DHT22;3016;50.308;8.258;2023-04-15T17:29:48;7.90;36.80
5980;DHT22;3016;50.308;8.258;2023-04-15T17:32:50;7.90;37.50
5980;DHT22;3016;50.308;8.258;2023-04-15T17:35:51;7.90;38.80
5980;DHT22;3016;50.308;8.258;2023-04-15T17:38:54;7.90;37.90
5980;DHT22;3016;50.308;8.258;2023-04-15T17:41:56;7.90;36.70
5980;DHT22;3016;50.308;8.258;2023-04-15T17:44:57;7.90;36.80
5980;DHT22;3016;50.308;8.258;2023-04-15T17:47:57;7.90;37.00
5980;DHT22;3016;50.308;8.258;2023-04-15T17:50:59;7.90;38.20
5980;DHT22;3016;50.308;8.258;2023-04-15T17:54:00;7.80;40.20
5980;DHT22;3016;50.308;8.258;2023-04-15T17:57:00;7.80;42.50
5980;DHT22;3016;50.308;8.258;2023-04-15T18:00:02;7.80;44.10
5980;DHT22;3016;50.308;8.258;2023-04-15T18:03:04;7.80;44.20
5980;DHT22;3016;50.308;8.258;2023-04-15T18:06:05;7.80;42.90
5980;DHT22;3016;50.308;8.258;2023-04-15T18:09:05;7.80;43.20
5980;DHT22;3016;50.308;8.258;2023-04-15T18:12:07;7.80;44.00
5980;DHT22;3016;50.308;8.258;2023-04-15T18:15:09;7.80;45.80
5980;DHT22;3016;50.308;8.258;2023-04-15T18:18:10;7.80;46.50
5980;DHT22;3016;50.308;8.258;2023-04-15T18:21:11;7.70;46.70
5980;DHT22;3016;50.308;8.258;2023-04-15T18:24:12;7.70;47.10
5980;DHT22;3016;50.308;8.258;2023-04-15T18:27:13;7.80;47.60
5980;DHT22;3016;50.308;8.258;2023-04-15T18:30:13;7.80;47.30
5980;DHT22;3016;50.308;8.258;2023-04-15T18:33:14;7.80;46.50
5980;DHT22;3016;50.308;8.258;2023-04-15T18:36:15;7.80;45.30
5980;DHT22;3016;50.308;8.258;2023-04-15T18:39:16;7.80;44.70
5980;DHT22;3016;50.308;8.258;2023-04-15T18:42:16;7.70;43.60
5980;DHT22;3016;50.308;8.258;2023-04-15T18:45:17;7.80;43.80
5980;DHT22;3016;50.308;8.258;2023-04-15T18:48:18;7.80;44.40
5980;DHT22;3016;50.308;8.258;2023-04-15T18:51:19;7.80;43.50
5980;DHT22;3016;50.308;8.258;2023-04-15T18:54:19;7.80;41.20
5980;DHT22;3016;50.308;8.258;2023-04-15T18:57:20;7.80;40.20
5980;DHT22;3016;50.308;8.258;2023-04-15T19:00:21;7.80;40.20
5980;DHT22;3016;50.308;8.258;2023-04-15T19:03:22;7.80;40.80
5980;DHT22;3016;50.308;8.258;2023-04-15T19:06:22;7.80;40.10
5980;DHT22;3016;50.308;8.258;2023-04-15T19:09:23;7.80;40.10
5980;DHT22;3016;50.308;8.258;2023-04-15T19:12:24;7.80;39.50
5980;DHT22;3016;50.308;8.258;2023-04-15T19:15:25;7.80;39.30
5980;DHT22;3016;50.308;8.258;2023-04-15T19:18:26;7.80;40.40
5980;DHT22;3016;50.308;8.258;2023-04-15T19:21:27;7.80;40.10
5980;DHT22;3016;50.308;8.258;2023-04-15T19:24:30;7.80;40.70
5980;DHT22;3016;50.308;8.258;2023-04-15T19:27:31;7.80;39.50
5980;DHT22;3016;50.308;8.258;2023-04-15T19:30:32;7.80;39.10
5980;DHT22;3016;50.308;8.258;2023-04-15T19:33:32;7.80;40.10
5980;DHT22;3016;50.308;8.258;2023-04-15T19:36:33;7.80;40.00
5980;DHT22;3016;50.308;8.258;2023-04-15T19:39:34;7.80;37.60
5980;DHT22;3016;50.308;8.258;2023-04-15T19:42:35;7.80;35.70
5980;DHT22;3016;50.308;8.258;2023-04-15T19:45:36;7.80;32.20
5980;DHT22;3016;50.308;8.258;2023-04-15T19:48:36;7.80;31.40
5980;DHT22;3016;50.308;8.258;2023-04-15T19:51:37;7.80;30.50
5980;DHT22;3016;50.308;8.258;2023-04-15T19:54:38;7.80;31.30
5980;DHT22;3016;50.308;8.258;2023-04-15T19:57:39;7.80;31.30
5980;DHT22;3016;50.308;8.258;2023-04-15T20:00:40;7.80;31.40
5980;DHT22;3016;50.308;8.258;2023-04-15T20:03:40;7.70;29.60
5980;DHT22;3016;50.308;8.258;2023-04-15T20:06:41;7.80;31.30
5980;DHT22;3016;50.308;8.258;2023-04-15T20:09:42;7.80;31.90
5980;DHT22;3016;50.308;8.258;2023-04-15T20:12:43;7.80;32.10